Time;durP1;ratioP1;P1;durP2;ratioP2;P2;SDS_P1;SDS_P2;PMS_P1;PMS_P2;Temp;Humidity;BMP_temperature;BMP_pressure;BME280_temperature;BME280_humidity;BME280_pressure;Samples;Min_cycle;Max_cycle;Signal;HPM_P1;HPM_P2
2022/05/27 00:00:53;;;;;;;;;24.25;24.25;;;;;;;;5122604;27;13311;-72
2022/05/27 00:03:19;;;;;;;;;25.75;23.25;;;;;;;;5141423;27;11617;-72
2022/05/27 00:05:47;;;;;;;;;24.25;22.50;;;;;;;;5122391;27;9603;-72
2022/05/27 00:08:13;;;;;;;;;26.00;25.25;;;;;;;;5141701;27;11517;-72
2022/05/27 00:10:38;;;;;;;;;30.75;26.75;;;;;;;;5141246;27;11452;-72
2022/05/27 00:13:04;;;;;;;;;26.25;25.50;;;;;;;;5122078;27;14246;-72
2022/05/27 00:15:29;;;;;;;;;28.50;26.75;;;;;;;;5139976;27;13732;-72
2022/05/27 00:17:54;;;;;;;;;31.00;26.00;;;;;;;;5121429;27;13339;-72
2022/05/27 00:20:20;;;;;;;;;26.75;26.00;;;;;;;;5140953;27;14930;-72
2022/05/27 00:22:45;;;;;;;;;27.75;26.00;;;;;;;;5140782;27;10746;-71
2022/05/27 00:25:11;;;;;;;;;27.75;27.50;;;;;;;;5121873;27;8806;-71
2022/05/27 00:27:36;;;;;;;;;29.50;29.00;;;;;;;;5140537;27;8867;-72
2022/05/27 00:30:02;;;;;;;;;27.25;25.00;;;;;;;;5140310;27;12667;-71
2022/05/27 00:32:28;;;;;;;;;26.00;26.00;;;;;;;;5140933;27;11886;-72
2022/05/27 00:34:53;;;;;;;;;3.75;2.50;;;;;;;;5140941;27;11476;-71
2022/05/27 00:37:18;;;;;;;;;27.50;24.50;;;;;;;;5140630;27;22750;-72
2022/05/27 00:39:43;;;;;;;;;23.50;23.50;;;;;;;;5139979;27;22940;-72
2022/05/27 00:42:09;;;;;;;;;24.00;23.25;;;;;;;;5140918;27;8822;-71
2022/05/27 00:44:34;;;;;;;;;22.50;22.50;;;;;;;;5139969;27;11397;-72
2022/05/27 00:47:08;;;;;;;;;28.00;24.50;;;;;;;;5140227;27;11775;-72
2022/05/27 00:49:39;;;;;;;;;29.50;25.25;;;;;;;;5140417;27;10513;-72
2022/05/27 00:52:09;;;;;;;;;28.25;27.25;;;;;;;;5121424;27;11890;-72
2022/05/27 00:54:35;;;;;;;;;27.00;26.00;;;;;;;;5139380;27;11494;-72
2022/05/27 00:57:03;;;;;;;;;28.00;25.75;;;;;;;;5139940;27;11435;-71
2022/05/27 00:59:47;;;;;;;;;27.00;25.25;;;;;;;;5140012;27;12657;-72
2022/05/27 01:02:13;;;;;;;;;28.50;24.75;;;;;;;;5140665;27;10853;-72
2022/05/27 01:04:39;;;;;;;;;26.50;25.50;;;;;;;;5140090;27;10704;-71
2022/05/27 01:07:05;;;;;;;;;30.50;24.75;;;;;;;;5140067;27;11992;-71
2022/05/27 01:09:31;;;;;;;;;25.50;23.00;;;;;;;;5120680;27;15173;-72
2022/05/27 01:12:17;;;;;;;;;26.25;24.00;;;;;;;;5140484;27;14541;-72
2022/05/27 01:15:01;;;;;;;;;26.50;25.00;;;;;;;;5087314;27;10696;-71
2022/05/27 01:17:26;;;;;;;;;24.75;22.75;;;;;;;;5140198;27;10555;-71
2022/05/27 01:20:19;;;;;;;;;16.50;15.50;;;;;;;;5140235;27;11462;-73
2022/05/27 01:22:59;;;;;;;;;28.00;23.00;;;;;;;;5139672;27;13307;-73
2022/05/27 01:25:25;;;;;;;;;23.75;23.00;;;;;;;;5139377;27;13311;-72
2022/05/27 01:27:53;;;;;;;;;23.25;22.75;;;;;;;;5139331;27;11271;-72
2022/05/27 01:30:19;;;;;;;;;24.00;23.00;;;;;;;;5139773;27;10673;-72
2022/05/27 01:32:54;;;;;;;;;25.25;22.75;;;;;;;;5139103;27;11477;-72
2022/05/27 01:35:37;;;;;;;;;23.50;22.50;;;;;;;;5139118;27;11476;-72
2022/05/27 01:38:25;;;;;;;;;21.50;21.00;;;;;;;;5139700;27;11749;-72
2022/05/27 01:40:50;;;;;;;;;21.50;18.75;;;;;;;;5119626;27;13006;-72
2022/05/27 01:43:22;;;;;;;;;24.00;22.00;;;;;;;;5139634;27;10509;-72
2022/05/27 01:45:48;;;;;;;;;24.25;24.25;;;;;;;;5139660;27;14042;-72
2022/05/27 01:48:17;;;;;;;;;21.00;21.00;;;;;;;;5139368;27;10409;-72
2022/05/27 01:50:51;;;;;;;;;21.75;21.75;;;;;;;;5139358;27;11442;-72
2022/05/27 01:53:19;;;;;;;;;25.75;22.50;;;;;;;;5139613;27;10449;-72
2022/05/27 01:55:45;;;;;;;;;20.75;16.75;;;;;;;;5139341;27;11645;-72
2022/05/27 01:58:26;;;;;;;;;21.00;21.00;;;;;;;;5120045;27;13140;-72
2022/05/27 02:00:51;;;;;;;;;19.75;18.50;;;;;;;;5139948;27;12483;-72
2022/05/27 02:03:23;;;;;;;;;25.25;23.50;;;;;;;;5139483;27;13424;-72
2022/05/27 02:05:58;;;;;;;;;22.25;19.75;;;;;;;;5120451;27;12347;-72
2022/05/27 02:08:27;;;;;;;;;22.50;22.50;;;;;;;;5139345;27;12601;-72
2022/05/27 02:11:00;;;;;;;;;21.75;18.50;;;;;;;;5139357;27;12998;-72
2022/05/27 02:13:34;;;;;;;;;20.25;17.75;;;;;;;;5139352;27;11566;-72
2022/05/27 02:15:59;;;;;;;;;22.00;22.00;;;;;;;;5138327;27;11463;-75
2022/05/27 02:18:28;;;;;;;;;20.50;19.25;;;;;;;;5119659;27;12357;-74
2022/05/27 02:20:56;;;;;;;;;27.75;22.00;;;;;;;;5138905;27;12646;-74
2022/05/27 02:23:28;;;;;;;;;24.25;22.25;;;;;;;;5138509;27;13502;-74
2022/05/27 02:25:54;;;;;;;;;23.75;21.50;;;;;;;;5138560;27;11521;-74
2022/05/27 02:28:26;;;;;;;;;23.50;21.25;;;;;;;;5119710;27;11714;-74
2022/05/27 02:30:55;;;;;;;;;23.00;20.75;;;;;;;;5119907;27;11140;-74
2022/05/27 02:36:14;;;;;;;;;19.50;16.25;;;;;;;;5138182;27;10395;-73
2022/05/27 02:38:39;;;;;;;;;22.25;17.75;;;;;;;;5138129;27;13597;-73
2022/05/27 02:41:26;;;;;;;;;22.25;20.00;;;;;;;;5141767;27;12196;-73
2022/05/27 02:43:54;;;;;;;;;23.25;21.00;;;;;;;;5142697;27;10926;-74
2022/05/27 02:46:37;;;;;;;;;24.75;22.00;;;;;;;;5141722;27;10388;-74
2022/05/27 02:49:21;;;;;;;;;24.50;22.50;;;;;;;;5142089;27;10596;-74
2022/05/27 02:51:52;;;;;;;;;22.25;20.75;;;;;;;;5142506;27;10816;-74
2022/05/27 02:54:21;;;;;;;;;20.75;19.25;;;;;;;;5122574;27;13341;-74
2022/05/27 02:57:05;;;;;;;;;20.75;17.75;;;;;;;;5142211;27;11455;-74
2022/05/27 02:59:31;;;;;;;;;20.50;18.75;;;;;;;;5142051;27;10474;-74
2022/05/27 03:02:04;;;;;;;;;17.00;17.00;;;;;;;;5123122;27;11563;-74
2022/05/27 03:04:30;;;;;;;;;22.75;21.75;;;;;;;;5141955;27;13562;-74
2022/05/27 03:06:56;;;;;;;;;21.75;19.50;;;;;;;;5142138;27;13395;-74
2022/05/27 03:09:37;;;;;;;;;22.00;20.25;;;;;;;;5141262;27;13632;-74
2022/05/27 03:12:10;;;;;;;;;25.50;25.00;;;;;;;;5141313;27;13921;-74
2022/05/27 03:14:55;;;;;;;;;24.00;22.00;;;;;;;;5122978;27;12396;-74
2022/05/27 03:17:25;;;;;;;;;22.25;20.25;;;;;;;;5141954;27;10639;-74
2022/05/27 03:20:10;;;;;;;;;24.00;22.25;;;;;;;;5141686;27;11723;-74
2022/05/27 03:22:50;;;;;;;;;23.25;22.50;;;;;;;;5141281;27;10913;-74
2022/05/27 03:25:28;;;;;;;;;23.75;23.25;;;;;;;;5141362;27;11604;-74
2022/05/27 03:28:13;;;;;;;;;27.75;25.00;;;;;;;;5141132;27;10807;-74
2022/05/27 03:30:48;;;;;;;;;23.00;21.25;;;;;;;;5140312;27;11479;-74
2022/05/27 03:33:35;;;;;;;;;26.00;22.50;;;;;;;;5140578;27;11478;-74
2022/05/27 03:36:18;;;;;;;;;23.75;22.50;;;;;;;;5141072;27;12127;-74
2022/05/27 03:38:57;;;;;;;;;23.25;22.50;;;;;;;;5141811;27;10756;-74
2022/05/27 03:41:29;;;;;;;;;25.75;23.00;;;;;;;;5141361;27;10645;-74
2022/05/27 03:43:54;;;;;;;;;27.25;23.00;;;;;;;;5141581;27;11756;-74
2022/05/27 03:46:30;;;;;;;;;21.25;19.75;;;;;;;;5141427;27;10973;-74
2022/05/27 03:48:55;;;;;;;;;23.00;20.25;;;;;;;;5140997;27;12343;-74
2022/05/27 03:51:24;;;;;;;;;25.25;23.25;;;;;;;;5121907;27;13843;-74
2022/05/27 03:54:04;;;;;;;;;20.75;20.75;;;;;;;;5140773;27;10417;-74
2022/05/27 03:56:37;;;;;;;;;21.50;18.00;;;;;;;;5101932;28;11848;-74
2022/05/27 03:59:04;;;;;;;;;21.25;21.25;;;;;;;;5119850;28;12522;-74
2022/05/27 04:01:30;;;;;;;;;20.50;19.50;;;;;;;;5120507;28;12275;-74
2022/05/27 04:04:00;;;;;;;;;23.75;22.00;;;;;;;;5120304;28;12515;-75
2022/05/27 04:06:26;;;;;;;;;26.25;25.25;;;;;;;;5101373;28;12788;-74
2022/05/27 04:08:51;;;;;;;;;22.00;21.50;;;;;;;;5100937;28;11824;-73
2022/05/27 04:11:16;;;;;;;;;22.75;21.75;;;;;;;;5120027;28;11679;-74
2022/05/27 04:13:42;;;;;;;;;20.25;19.25;;;;;;;;5119786;28;8797;-74
2022/05/27 04:16:07;;;;;;;;;22.00;18.00;;;;;;;;5100938;28;11823;-74
2022/05/27 04:18:32;;;;;;;;;22.00;22.00;;;;;;;;5119539;28;11713;-74
2022/05/27 04:20:57;;;;;;;;;19.50;19.00;;;;;;;;5119644;28;8851;-73
2022/05/27 04:23:23;;;;;;;;;26.25;21.25;;;;;;;;5120120;28;12492;-74
2022/05/27 04:25:49;;;;;;;;;25.75;23.75;;;;;;;;5120241;28;13441;-74
2022/05/27 04:28:14;;;;;;;;;23.00;21.00;;;;;;;;5119907;28;10448;-74
2022/05/27 04:30:41;;;;;;;;;23.75;23.75;;;;;;;;5119529;28;11538;-74
2022/05/27 04:33:07;;;;;;;;;21.75;21.75;;;;;;;;5100810;28;11481;-75
2022/05/27 04:35:32;;;;;;;;;21.25;21.25;;;;;;;;5118949;28;10903;-74
2022/05/27 04:37:57;;;;;;;;;18.50;18.00;;;;;;;;5119660;28;8883;-74
2022/05/27 04:40:23;;;;;;;;;20.00;16.25;;;;;;;;5119745;28;13659;-75
2022/05/27 04:42:50;;;;;;;;;24.50;24.00;;;;;;;;5101335;28;13498;-74
2022/05/27 04:45:16;;;;;;;;;21.25;21.00;;;;;;;;5101192;28;12966;-74
2022/05/27 04:47:41;;;;;;;;;22.00;19.00;;;;;;;;5101087;28;10771;-74
2022/05/27 04:50:08;;;;;;;;;18.75;17.50;;;;;;;;5120338;28;11508;-73
2022/05/27 04:52:34;;;;;;;;;19.75;19.75;;;;;;;;5119465;28;13499;-75
2022/05/27 04:55:02;;;;;;;;;23.25;21.50;;;;;;;;5119632;28;11395;-75
2022/05/27 04:57:30;;;;;;;;;23.75;20.25;;;;;;;;5118940;28;13804;-74
2022/05/27 04:59:55;;;;;;;;;19.50;19.50;;;;;;;;5100626;28;11011;-73
2022/05/27 05:02:23;;;;;;;;;21.75;20.75;;;;;;;;5124922;27;13509;-74
2022/05/27 05:04:49;;;;;;;;;19.75;19.00;;;;;;;;5138647;27;14812;-76
2022/05/27 05:07:14;;;;;;;;;21.00;20.00;;;;;;;;5138842;27;14371;-75
2022/05/27 05:09:40;;;;;;;;;22.25;17.25;;;;;;;;5138756;27;12279;-72
2022/05/27 05:12:06;;;;;;;;;22.00;20.25;;;;;;;;5135867;27;12335;-72
2022/05/27 05:14:32;;;;;;;;;23.25;21.25;;;;;;;;5135473;27;11404;-72
2022/05/27 05:16:57;;;;;;;;;23.00;21.00;;;;;;;;5137002;27;10413;-72
2022/05/27 05:19:22;;;;;;;;;19.00;19.00;;;;;;;;5137009;27;8794;-72
2022/05/27 05:21:48;;;;;;;;;22.00;19.25;;;;;;;;5136921;27;11731;-74
2022/05/27 05:24:13;;;;;;;;;26.50;21.25;;;;;;;;5137287;27;13285;-73
2022/05/27 05:26:39;;;;;;;;;20.00;19.00;;;;;;;;5138358;27;11521;-74
2022/05/27 05:29:06;;;;;;;;;25.00;22.25;;;;;;;;5137796;27;12243;-74
2022/05/27 05:31:31;;;;;;;;;20.25;19.50;;;;;;;;5137303;27;12360;-74
2022/05/27 05:33:59;;;;;;;;;23.25;21.00;;;;;;;;5117835;27;14015;-74
2022/05/27 05:36:26;;;;;;;;;23.50;20.50;;;;;;;;5137360;27;12328;-74
2022/05/27 05:38:52;;;;;;;;;20.50;18.75;;;;;;;;5138056;27;11610;-73
2022/05/27 05:41:26;;;;;;;;;20.75;20.00;;;;;;;;5138229;27;13660;-72
2022/05/27 05:43:51;;;;;;;;;19.00;19.00;;;;;;;;5117687;27;14742;-74
2022/05/27 05:46:17;;;;;;;;;18.50;18.50;;;;;;;;5112797;27;12826;-73
2022/05/27 05:48:42;;;;;;;;;23.00;22.25;;;;;;;;5127737;27;11613;-71
2022/05/27 05:51:07;;;;;;;;;22.25;20.50;;;;;;;;5137908;27;13478;-73
2022/05/27 05:53:32;;;;;;;;;24.25;22.00;;;;;;;;5137415;27;12055;-75
2022/05/27 05:56:01;;;;;;;;;25.00;23.50;;;;;;;;5137950;27;11452;-72
2022/05/27 05:58:26;;;;;;;;;24.00;20.50;;;;;;;;5138346;27;13237;-72
2022/05/27 06:00:51;;;;;;;;;21.75;20.25;;;;;;;;5138697;27;10730;-74
2022/05/27 06:03:17;;;;;;;;;20.00;19.75;;;;;;;;5115627;27;13754;-72
2022/05/27 06:05:42;;;;;;;;;23.50;19.25;;;;;;;;5136507;27;11378;-74
2022/05/27 06:08:08;;;;;;;;;25.25;24.00;;;;;;;;5118543;27;10706;-73
2022/05/27 06:10:33;;;;;;;;;22.75;21.25;;;;;;;;5134998;27;12480;-73
2022/05/27 06:12:59;;;;;;;;;22.75;20.00;;;;;;;;5117860;27;11825;-73
2022/05/27 06:15:24;;;;;;;;;23.25;22.25;;;;;;;;5138750;27;9490;-73
2022/05/27 06:17:49;;;;;;;;;22.50;21.75;;;;;;;;5141500;27;11430;-73
2022/05/27 06:20:15;;;;;;;;;23.75;22.75;;;;;;;;5123732;27;10417;-73
2022/05/27 06:22:41;;;;;;;;;24.50;21.75;;;;;;;;5142159;27;10331;-72
2022/05/27 06:25:07;;;;;;;;;23.00;22.50;;;;;;;;5142179;27;10578;-73
2022/05/27 06:27:32;;;;;;;;;30.75;24.75;;;;;;;;5141666;27;11382;-73
2022/05/27 06:35:28;;;;;;;;;51.25;43.50;;;;;;;;5142217;27;10402;-73
2022/05/27 06:37:54;;;;;;;;;40.50;34.25;;;;;;;;5141323;27;14534;-73
2022/05/27 06:40:19;;;;;;;;;50.75;41.25;;;;;;;;5129974;27;13422;-73
2022/05/27 06:42:44;;;;;;;;;28.00;23.75;;;;;;;;5141638;27;12412;-71
2022/05/27 06:45:11;;;;;;;;;24.75;23.50;;;;;;;;5141208;27;13156;-72
2022/05/27 06:47:39;;;;;;;;;24.50;23.75;;;;;;;;5141535;27;11461;-72
2022/05/27 06:50:05;;;;;;;;;28.50;27.75;;;;;;;;5118422;27;10825;-72
2022/05/27 06:52:30;;;;;;;;;29.00;28.00;;;;;;;;5139554;27;11537;-74
2022/05/27 06:54:55;;;;;;;;;29.50;26.50;;;;;;;;5140422;27;11618;-75
2022/05/27 06:57:21;;;;;;;;;21.25;19.25;;;;;;;;5139402;27;10349;-75
2022/05/27 06:59:46;;;;;;;;;22.25;22.25;;;;;;;;5139965;27;12422;-74
2022/05/27 07:02:12;;;;;;;;;24.50;22.00;;;;;;;;5140900;27;9778;-75
2022/05/27 07:04:37;;;;;;;;;33.50;30.00;;;;;;;;5140563;27;11422;-80
2022/05/27 07:07:06;;;;;;;;;26.50;23.75;;;;;;;;5141817;27;10610;-83
2022/05/27 07:09:35;;;;;;;;;22.00;22.00;;;;;;;;5142093;27;13721;-85
2022/05/27 07:12:02;;;;;;;;;23.25;23.25;;;;;;;;5141340;27;12129;-80
2022/05/27 07:14:27;;;;;;;;;22.00;22.00;;;;;;;;5140005;27;11479;-80
2022/05/27 07:16:53;;;;;;;;;31.25;28.50;;;;;;;;5140143;27;11462;-79
2022/05/27 07:19:19;;;;;;;;;28.50;24.50;;;;;;;;5139795;27;14616;-84
2022/05/27 07:21:45;;;;;;;;;27.00;23.50;;;;;;;;5140180;27;12840;-82
2022/05/27 07:24:13;;;;;;;;;23.25;23.25;;;;;;;;5139665;27;10817;-77
2022/05/27 07:26:39;;;;;;;;;23.75;21.25;;;;;;;;5139247;27;12198;-79
2022/05/27 07:29:05;;;;;;;;;23.00;21.75;;;;;;;;5139808;27;9978;-77
2022/05/27 07:31:31;;;;;;;;;24.25;23.00;;;;;;;;5121066;27;9881;-80
2022/05/27 07:33:56;;;;;;;;;22.00;19.33;;;;;;;;5139972;27;11437;-84
2022/05/27 07:36:22;;;;;;;;;24.25;21.75;;;;;;;;5141120;27;12200;-88
2022/05/27 07:38:51;;;;;;;;;27.25;25.25;;;;;;;;5148812;27;11597;-84
2022/05/27 07:41:17;;;;;;;;;21.33;19.00;;;;;;;;5153421;27;10593;-82
2022/05/27 07:43:42;;;;;;;;;20.50;19.00;;;;;;;;5142849;27;12420;-84
2022/05/27 21:19:54;;;;;;;;;9.33;9.00;;;;;;;;5118968;27;1444347;-72
2022/05/27 21:22:19;;;;;;;;;7.67;6.67;;;;;;;;5137431;27;22758;-72
2022/05/27 21:24:44;;;;;;;;;10.33;6.67;;;;;;;;5156206;27;11485;-71
2022/05/27 21:27:11;;;;;;;;;9.00;6.00;;;;;;;;5153066;27;16452;-71
2022/05/27 21:29:37;;;;;;;;;9.50;8.00;;;;;;;;5134345;27;21912;-71
2022/05/27 21:32:03;;;;;;;;;8.00;6.25;;;;;;;;5134204;27;9776;-71
2022/05/27 21:34:28;;;;;;;;;9.67;7.00;;;;;;;;5135049;27;11454;-71
2022/05/27 21:36:54;;;;;;;;;10.67;8.00;;;;;;;;5136224;27;11311;-71
2022/05/27 21:39:20;;;;;;;;;14.67;11.00;;;;;;;;5135816;27;21774;-76
2022/05/27 21:41:47;;;;;;;;;23.00;20.33;;;;;;;;5135890;27;21356;-76
2022/05/27 21:44:13;;;;;;;;;11.75;10.00;;;;;;;;5135631;27;13307;-76
2022/05/27 21:46:38;;;;;;;;;7.67;6.33;;;;;;;;5136136;27;13376;-75
2022/05/27 21:49:04;;;;;;;;;14.00;10.33;;;;;;;;5135807;27;22154;-76
2022/05/27 21:51:29;;;;;;;;;11.33;9.00;;;;;;;;5135701;27;22260;-76
2022/05/27 21:53:55;;;;;;;;;9.33;7.00;;;;;;;;5116794;27;21741;-76
2022/05/27 21:56:20;;;;;;;;;8.33;7.67;;;;;;;;5135967;27;21469;-77
2022/05/27 21:58:49;;;;;;;;;10.00;9.67;;;;;;;;5136056;27;12668;-76
2022/05/27 22:01:16;;;;;;;;;11.00;7.75;;;;;;;;5135900;27;21462;-76
2022/05/27 22:03:41;;;;;;;;;16.00;12.50;;;;;;;;5135710;27;10871;-75
2022/05/27 22:06:07;;;;;;;;;16.00;11.00;;;;;;;;5135312;27;22270;-76
2022/05/27 22:08:34;;;;;;;;;11.25;8.75;;;;;;;;5117239;27;9567;-76
2022/05/27 22:13:43;;;;;;;;;7.50;6.75;;;;;;;;5135593;27;22435;-75
2022/05/27 22:16:09;;;;;;;;;11.33;6.67;;;;;;;;5136032;27;11276;-77
2022/05/27 22:18:34;;;;;;;;;7.00;6.00;;;;;;;;5135126;27;22523;-76
2022/05/27 22:21:02;;;;;;;;;7.33;6.00;;;;;;;;5135518;27;21371;-77
2022/05/27 22:23:28;;;;;;;;;7.75;7.00;;;;;;;;5117223;27;9711;-76
2022/05/27 22:25:53;;;;;;;;;7.67;6.00;;;;;;;;5135706;27;8800;-76
2022/05/27 22:28:19;;;;;;;;;12.00;8.67;;;;;;;;5136060;27;9494;-75
2022/05/27 22:30:44;;;;;;;;;6.33;5.00;;;;;;;;5106047;28;23299;-75
2022/05/27 22:33:09;;;;;;;;;9.67;6.00;;;;;;;;5121291;28;22079;-76
2022/05/27 22:35:35;;;;;;;;;9.67;6.33;;;;;;;;5121647;28;10319;-76
2022/05/27 22:38:02;;;;;;;;;8.00;6.50;;;;;;;;5121496;28;8804;-76
2022/05/27 22:40:28;;;;;;;;;7.00;5.50;;;;;;;;5121946;28;11386;-75
2022/05/27 22:42:53;;;;;;;;;9.67;7.00;;;;;;;;5121838;28;8864;-75
2022/05/27 22:45:19;;;;;;;;;11.00;8.00;;;;;;;;5103035;28;13288;-75
2022/05/27 22:47:44;;;;;;;;;6.67;6.00;;;;;;;;5102432;28;23286;-75
2022/05/27 22:50:10;;;;;;;;;10.33;8.33;;;;;;;;5102016;28;24230;-75
2022/05/27 22:52:36;;;;;;;;;5.67;5.67;;;;;;;;5120932;28;22183;-75
2022/05/27 22:55:02;;;;;;;;;7.00;5.00;;;;;;;;5102255;28;23502;-76
2022/05/27 22:57:27;;;;;;;;;6.00;5.67;;;;;;;;5121875;28;12496;-76
2022/05/27 22:59:52;;;;;;;;;5.00;4.00;;;;;;;;5121503;28;11527;-76
2022/05/27 23:02:17;;;;;;;;;8.33;4.67;;;;;;;;5102330;28;13376;-76
2022/05/27 23:04:43;;;;;;;;;9.67;5.67;;;;;;;;5101874;28;12573;-75
2022/05/27 23:07:09;;;;;;;;;7.33;7.33;;;;;;;;5103060;28;12584;-76
2022/05/27 23:09:35;;;;;;;;;9.00;5.00;;;;;;;;5121262;28;11843;-75
2022/05/27 23:12:04;;;;;;;;;6.33;5.67;;;;;;;;5121159;28;12036;-74
2022/05/27 23:20:17;;;;;;;;;9.00;6.25;;;;;;;;5057808;28;11328;-76
2022/05/27 23:22:42;;;;;;;;;8.33;6.00;;;;;;;;5057204;28;11307;-75
2022/05/27 23:25:07;;;;;;;;;5.00;5.00;;;;;;;;5057465;28;11763;-75
2022/05/27 23:27:33;;;;;;;;;7.33;5.33;;;;;;;;5039948;28;10892;-75
2022/05/27 23:30:00;;;;;;;;;4.00;4.00;;;;;;;;5056617;28;14090;-76
2022/05/27 23:32:25;;;;;;;;;6.25;6.00;;;;;;;;5057583;28;13206;-75
2022/05/27 23:34:51;;;;;;;;;7.00;5.00;;;;;;;;5057409;28;10345;-76
2022/05/27 23:37:16;;;;;;;;;5.33;5.00;;;;;;;;5057620;28;10271;-76
2022/05/27 23:39:41;;;;;;;;;7.33;5.00;;;;;;;;5057674;28;8996;-75
2022/05/27 23:42:06;;;;;;;;;6.67;4.33;;;;;;;;5055853;28;9149;-75
2022/05/27 23:44:32;;;;;;;;;7.00;6.00;;;;;;;;5057056;28;11805;-75
2022/05/27 23:46:57;;;;;;;;;7.67;6.33;;;;;;;;5057078;28;11410;-75
2022/05/27 23:49:23;;;;;;;;;9.00;5.00;;;;;;;;5116788;28;8925;-74
2022/05/27 23:51:50;;;;;;;;;8.00;7.00;;;;;;;;5120349;28;11324;-76
2022/05/27 23:54:17;;;;;;;;;7.25;7.25;;;;;;;;5120661;28;10118;-75
2022/05/27 23:56:42;;;;;;;;;7.00;7.00;;;;;;;;5119996;28;12063;-77
2022/05/27 23:59:07;;;;;;;;;9.00;7.00;;;;;;;;5120033;28;9624;-75
